createdAt,value
2019-03-09T00:00:34.948Z,7.48
2019-03-09T00:01:34.932Z,7.45
2019-03-09T00:02:34.921Z,7.43
2019-03-09T00:03:34.943Z,7.54
2019-03-09T00:04:34.921Z,7.58
2019-03-09T00:05:34.893Z,7.58
2019-03-09T00:06:34.883Z,7.61
2019-03-09T00:07:34.876Z,7.43
2019-03-09T00:08:34.891Z,7.53
2019-03-09T00:09:34.865Z,7.56
2019-03-09T00:10:34.842Z,7.48
2019-03-09T00:11:34.832Z,7.57
2019-03-09T00:12:34.818Z,7.43
2019-03-09T00:13:34.834Z,7.48
2019-03-09T00:14:34.804Z,7.51
2019-03-09T00:15:34.781Z,7.51
2019-03-09T00:16:34.771Z,7.57
2019-03-09T00:17:34.763Z,7.58
2019-03-09T00:18:34.795Z,7.53
2019-03-09T00:19:34.752Z,7.58
2019-03-09T00:20:34.768Z,7.53
2019-03-09T00:21:34.721Z,7.53
2019-03-09T00:22:34.719Z,7.57
2019-03-09T00:23:34.695Z,7.51
2019-03-09T00:24:34.708Z,7.58
2019-03-09T00:25:34.672Z,7.60
2019-03-09T00:26:34.662Z,7.60
2019-03-09T00:27:34.655Z,7.56
2019-03-09T00:28:34.648Z,7.54
2019-03-09T00:29:34.895Z,7.42
2019-03-09T00:30:34.620Z,7.53
2019-03-09T00:31:34.621Z,7.50
2019-03-09T00:32:34.606Z,7.43
2019-03-09T00:33:34.623Z,7.45
2019-03-09T00:34:34.595Z,7.53
2019-03-09T00:35:34.585Z,7.42
2019-03-09T00:36:34.562Z,7.45
2019-03-09T00:37:34.544Z,7.45
2019-03-09T00:38:34.583Z,7.42
2019-03-09T00:39:34.525Z,7.45
2019-03-09T00:40:34.545Z,7.45
2019-03-09T00:41:34.512Z,7.54
2019-03-09T00:42:34.493Z,7.56
2019-03-09T00:43:34.490Z,7.45
2019-03-09T00:44:34.490Z,7.54
2019-03-09T00:45:34.470Z,7.51
2019-03-09T00:46:34.468Z,7.43
2019-03-09T00:47:34.435Z,7.47
2019-03-09T00:48:34.419Z,7.50
2019-03-09T00:49:34.406Z,7.50
2019-03-09T00:50:34.434Z,7.39
2019-03-09T00:51:34.402Z,7.32
2019-03-09T00:52:34.386Z,7.24
2019-03-09T00:53:34.373Z,7.18
2019-03-09T00:54:34.367Z,7.23
2019-03-09T00:55:34.359Z,7.17
2019-03-09T00:56:34.371Z,7.31
2019-03-09T00:57:34.328Z,7.28
2019-03-09T00:58:34.335Z,7.23
2019-03-09T00:59:34.307Z,7.29
2019-03-09T01:00:34.296Z,7.31
2019-03-09T01:01:34.281Z,7.29
2019-03-09T01:02:34.295Z,7.28
2019-03-09T01:03:34.323Z,7.25
2019-03-09T01:04:34.261Z,7.31
2019-03-09T01:05:34.243Z,7.25
2019-03-09T01:06:34.247Z,7.39
2019-03-09T01:07:34.259Z,7.40
2019-03-09T01:08:34.207Z,7.38
2019-03-09T01:09:34.211Z,7.42
2019-03-09T01:10:34.185Z,7.39
2019-03-09T01:11:34.216Z,7.45
2019-03-09T01:12:34.198Z,7.45
2019-03-09T01:13:34.193Z,7.39
2019-03-09T01:14:34.149Z,7.42
2019-03-09T01:15:34.126Z,7.43
2019-03-09T01:16:34.126Z,7.45
2019-03-09T01:17:34.163Z,7.45
2019-03-09T01:18:34.098Z,7.45
2019-03-09T01:19:34.179Z,7.40
2019-03-09T01:20:34.077Z,7.40
2019-03-09T01:21:34.063Z,7.42
2019-03-09T01:22:34.089Z,7.32
2019-03-09T01:23:34.062Z,7.33
2019-03-09T01:24:34.036Z,7.38
2019-03-09T01:25:34.026Z,7.32
2019-03-09T01:26:34.012Z,7.28
2019-03-09T01:27:34.025Z,7.29
2019-03-09T01:28:33.985Z,7.24
2019-03-09T01:29:34.010Z,7.33
2019-03-09T01:30:33.960Z,7.31
2019-03-09T01:31:33.955Z,7.38
2019-03-09T01:32:33.965Z,7.38
2019-03-09T01:33:33.925Z,7.35
2019-03-09T01:34:33.921Z,7.33
2019-03-09T01:35:33.921Z,7.38
2019-03-09T01:36:33.911Z,7.36
2019-03-09T01:37:33.918Z,7.38
2019-03-09T01:38:33.875Z,7.48
2019-03-09T01:39:42.899Z,7.45
2019-03-09T01:40:33.860Z,7.47
2019-03-09T01:41:33.837Z,7.53
2019-03-09T01:42:33.822Z,7.53
2019-03-09T01:43:33.860Z,7.53
2019-03-09T01:44:33.804Z,7.48
2019-03-09T01:45:33.788Z,7.54
2019-03-09T01:46:33.775Z,7.48
2019-03-09T01:47:33.767Z,7.43
2019-03-09T01:48:33.781Z,7.56
2019-03-09T01:49:33.766Z,7.51
2019-03-09T01:50:33.732Z,7.45
2019-03-09T01:51:33.718Z,7.42
2019-03-09T01:52:33.707Z,7.43
2019-03-09T01:53:36.988Z,7.43
2019-03-09T01:54:33.693Z,7.39
2019-03-09T01:55:33.693Z,7.33
2019-03-09T01:56:33.670Z,7.42
2019-03-09T01:57:33.654Z,7.43
2019-03-09T01:58:33.663Z,7.39
2019-03-09T01:59:33.651Z,7.42
2019-03-09T02:00:33.623Z,7.42
2019-03-09T02:01:33.616Z,7.38
2019-03-09T02:02:33.604Z,7.45
2019-03-09T02:03:33.617Z,7.48
2019-03-09T02:04:33.580Z,7.42
2019-03-09T02:05:33.599Z,7.40
2019-03-09T02:06:33.606Z,7.36
2019-03-09T02:07:33.550Z,7.42
2019-03-09T02:08:33.542Z,7.39
2019-03-09T02:09:33.525Z,7.43
2019-03-09T02:10:33.522Z,7.45
2019-03-09T02:11:33.517Z,7.39
2019-03-09T02:12:33.488Z,7.42
2019-03-09T02:13:33.506Z,7.39
2019-03-09T02:14:33.473Z,7.38
2019-03-09T02:15:33.461Z,7.47
2019-03-09T02:16:33.451Z,7.43
2019-03-09T02:17:33.434Z,7.36
2019-03-09T02:18:33.458Z,7.33
2019-03-09T02:19:33.420Z,7.42
2019-03-09T02:20:33.415Z,7.42
2019-03-09T02:21:33.388Z,7.33
2019-03-09T02:22:33.382Z,7.40
2019-03-09T02:23:33.369Z,7.43
2019-03-09T02:24:33.378Z,7.56
2019-03-09T02:25:33.351Z,7.50
2019-03-09T02:26:33.341Z,7.51
2019-03-09T02:27:33.332Z,7.48
2019-03-09T02:28:33.324Z,7.43
2019-03-09T02:29:33.334Z,7.57
2019-03-09T02:30:33.292Z,7.50
2019-03-09T02:31:33.285Z,7.51
2019-03-09T02:32:33.274Z,7.66
2019-03-09T02:33:33.265Z,7.63
2019-03-09T02:34:33.264Z,7.67
2019-03-09T02:35:33.271Z,7.54
2019-03-09T02:36:33.229Z,7.57
2019-03-09T02:37:33.240Z,7.73
2019-03-09T02:38:33.221Z,7.66
2019-03-09T02:39:33.202Z,7.54
2019-03-09T02:40:33.192Z,7.63
2019-03-09T02:41:33.198Z,7.57
2019-03-09T02:42:33.162Z,7.57
2019-03-09T02:43:33.148Z,7.72
2019-03-09T02:44:33.141Z,7.63
2019-03-09T02:45:33.139Z,7.60
2019-03-09T02:46:33.146Z,7.60
2019-03-09T02:47:33.116Z,7.73
2019-03-09T02:48:33.104Z,7.73
2019-03-09T02:49:33.085Z,7.75
2019-03-09T02:50:33.089Z,7.66
2019-03-09T02:51:33.108Z,7.58
2019-03-09T02:52:33.896Z,7.75
2019-03-09T02:53:33.046Z,7.77
2019-03-09T02:54:33.033Z,7.82
2019-03-09T02:55:33.018Z,7.80
2019-03-09T02:56:33.031Z,7.69
2019-03-09T02:57:33.005Z,7.70
2019-03-09T02:58:32.993Z,7.79
2019-03-09T02:59:32.985Z,7.75
2019-03-09T03:00:32.973Z,7.72
2019-03-09T03:01:33.006Z,7.79
2019-03-09T03:02:32.944Z,7.77
2019-03-09T03:03:32.944Z,7.80
2019-03-09T03:04:32.925Z,7.82
2019-03-09T03:05:32.921Z,7.83
2019-03-09T03:06:32.911Z,7.69
2019-03-09T03:07:32.956Z,7.73
2019-03-09T03:08:32.882Z,7.67
2019-03-09T03:09:32.876Z,7.82
2019-03-09T03:10:32.889Z,7.83
2019-03-09T03:11:32.881Z,7.73
2019-03-09T03:12:32.842Z,7.82
2019-03-09T03:13:35.402Z,7.76
2019-03-09T03:14:32.820Z,7.87
2019-03-09T03:15:32.885Z,7.88
2019-03-09T03:16:32.789Z,7.77
2019-03-09T03:17:32.814Z,7.83
2019-03-09T03:18:32.775Z,7.91
2019-03-09T03:19:32.762Z,7.73
2019-03-09T03:20:32.755Z,7.73
2019-03-09T03:21:32.739Z,7.70
2019-03-09T03:22:32.752Z,7.69
2019-03-09T03:23:32.720Z,7.82
2019-03-09T03:24:32.712Z,7.76
2019-03-09T03:25:32.691Z,7.72
2019-03-09T03:26:32.680Z,7.80
2019-03-09T03:27:32.700Z,7.80
2019-03-09T03:28:32.665Z,7.85
2019-03-09T03:29:32.677Z,7.70
2019-03-09T03:30:32.648Z,7.82
2019-03-09T03:31:32.640Z,7.80
2019-03-09T03:32:32.637Z,7.75
2019-03-09T03:33:32.767Z,7.66
2019-03-09T03:34:32.615Z,7.76
2019-03-09T03:35:32.586Z,7.72
2019-03-09T03:36:32.593Z,7.69
2019-03-09T03:37:32.584Z,7.73
2019-03-09T03:38:32.570Z,7.75
2019-03-09T03:39:32.543Z,7.66
2019-03-09T03:40:32.526Z,7.80
2019-03-09T03:41:32.533Z,7.85
2019-03-09T03:42:32.536Z,7.85
2019-03-09T03:43:32.538Z,7.82
2019-03-09T03:44:32.487Z,7.70
2019-03-09T03:45:32.515Z,7.72
2019-03-09T03:46:32.516Z,7.73
2019-03-09T03:47:32.608Z,7.70
2019-03-09T03:48:32.458Z,7.73
2019-03-09T03:49:32.488Z,7.80
2019-03-09T03:50:32.472Z,7.77
2019-03-09T03:51:32.416Z,7.79
2019-03-09T03:52:32.405Z,7.82
2019-03-09T03:53:32.415Z,7.79
2019-03-09T03:54:32.379Z,7.66
2019-03-09T03:55:32.372Z,7.79
2019-03-09T03:56:32.365Z,7.82
2019-03-09T03:57:32.369Z,7.83
2019-03-09T03:58:32.354Z,7.80
2019-03-09T03:59:32.319Z,7.73
2019-03-09T04:00:32.306Z,7.72
2019-03-09T04:01:32.302Z,7.69
2019-03-09T04:02:32.322Z,7.79
2019-03-09T04:03:32.280Z,7.63
2019-03-09T04:04:32.295Z,7.77
2019-03-09T04:05:32.295Z,7.79
2019-03-09T04:06:32.245Z,7.73
2019-03-09T04:07:32.233Z,7.69
2019-03-09T04:08:32.240Z,7.67
2019-03-09T04:09:32.219Z,7.58
2019-03-09T04:10:32.235Z,7.73
2019-03-09T04:11:32.188Z,7.60
2019-03-09T04:12:32.191Z,7.66
2019-03-09T04:13:32.173Z,7.57
2019-03-09T04:14:32.160Z,7.60
2019-03-09T04:15:32.154Z,7.51
2019-03-09T04:16:32.160Z,7.54
2019-03-09T04:17:32.136Z,7.72
2019-03-09T04:18:32.113Z,7.57
2019-03-09T04:19:32.113Z,7.73
2019-03-09T04:20:32.120Z,7.72
2019-03-09T04:21:32.086Z,7.73
2019-03-09T04:22:32.072Z,7.69
2019-03-09T04:23:32.066Z,7.63
2019-03-09T04:24:32.063Z,7.63
2019-03-09T04:25:32.046Z,7.67
2019-03-09T04:26:32.041Z,7.73
2019-03-09T04:27:32.019Z,7.72
2019-03-09T04:28:32.027Z,7.73
2019-03-09T04:29:32.000Z,7.82
2019-03-09T04:30:31.977Z,7.83
2019-03-09T04:31:31.993Z,7.79
2019-03-09T04:32:31.976Z,7.80
2019-03-09T04:33:31.954Z,7.80
2019-03-09T04:34:31.947Z,7.82
2019-03-09T04:35:31.929Z,7.72
2019-03-09T04:36:31.949Z,7.75
2019-03-09T04:37:31.903Z,7.75
2019-03-09T04:38:31.894Z,7.66
2019-03-09T04:39:31.895Z,7.72
2019-03-09T04:40:31.869Z,7.73
2019-03-09T04:41:31.867Z,7.77
2019-03-09T04:42:31.878Z,7.80
2019-03-09T04:43:31.837Z,7.77
2019-03-09T04:44:31.830Z,7.82
2019-03-09T04:45:31.863Z,7.88
2019-03-09T04:46:31.807Z,7.80
2019-03-09T04:47:31.821Z,7.80
2019-03-09T04:48:31.788Z,7.80
2019-03-09T04:49:31.773Z,7.80
2019-03-09T04:50:31.759Z,7.80
2019-03-09T04:51:31.748Z,7.82
2019-03-09T04:52:31.757Z,7.82
2019-03-09T04:53:31.732Z,7.91
2019-03-09T04:54:31.720Z,7.93
2019-03-09T04:55:31.710Z,7.88
2019-03-09T04:56:31.701Z,7.93
2019-03-09T04:57:31.727Z,7.94
2019-03-09T04:58:31.707Z,7.88
2019-03-09T04:59:31.669Z,7.85
2019-03-09T05:00:31.656Z,7.93
2019-03-09T05:01:31.637Z,7.94
2019-03-09T05:02:31.627Z,7.91
2019-03-09T05:03:31.626Z,7.91
2019-03-09T05:04:31.627Z,7.88
2019-03-09T05:05:31.602Z,7.90
2019-03-09T05:06:31.592Z,7.83
2019-03-09T05:07:31.586Z,7.82
2019-03-09T05:08:31.572Z,7.88
2019-03-09T05:09:31.579Z,7.83
2019-03-09T05:10:31.546Z,7.83
2019-03-09T05:11:31.529Z,7.87
2019-03-09T05:12:31.522Z,7.83
2019-03-09T05:13:31.520Z,7.82
2019-03-09T05:14:31.502Z,7.79
2019-03-09T05:15:31.516Z,7.75
2019-03-09T05:16:31.480Z,7.57
2019-03-09T05:17:31.469Z,7.58
2019-03-09T05:18:31.461Z,7.69
2019-03-09T05:19:31.447Z,7.66
2019-03-09T05:20:31.461Z,7.56
2019-03-09T05:21:31.443Z,7.73
2019-03-09T05:22:31.414Z,7.73
2019-03-09T05:23:31.399Z,7.70
2019-03-09T05:24:31.389Z,7.70
2019-03-09T05:25:31.384Z,7.75
2019-03-09T05:26:31.393Z,7.73
2019-03-09T05:27:31.363Z,7.72
2019-03-09T05:28:31.353Z,7.72
2019-03-09T05:29:31.333Z,7.73
2019-03-09T05:30:31.323Z,7.67
2019-03-09T05:31:31.337Z,7.72
2019-03-09T05:32:31.316Z,7.82
2019-03-09T05:33:31.295Z,7.77
2019-03-09T05:34:31.281Z,7.82
2019-03-09T05:35:31.265Z,7.79
2019-03-09T05:36:31.288Z,7.70
2019-03-09T05:37:31.253Z,7.69
2019-03-09T05:38:31.241Z,7.69
2019-03-09T05:39:31.233Z,7.61
2019-03-09T05:40:31.220Z,7.63
2019-03-09T05:41:31.204Z,7.67
2019-03-09T05:42:31.212Z,7.72
2019-03-09T05:43:31.178Z,7.69
2019-03-09T05:44:31.171Z,7.72
2019-03-09T05:45:31.164Z,7.57
2019-03-09T05:46:31.154Z,7.56
2019-03-09T05:47:31.159Z,7.66
2019-03-09T05:48:31.124Z,7.57
2019-03-09T05:49:31.120Z,7.58
2019-03-09T05:50:31.117Z,7.67
2019-03-09T05:51:31.098Z,7.72
2019-03-09T05:52:31.109Z,7.69
2019-03-09T05:53:31.069Z,7.72
2019-03-09T05:54:31.061Z,7.69
2019-03-09T05:55:31.049Z,7.58
2019-03-09T05:56:31.044Z,7.48
2019-03-09T05:57:31.107Z,7.53
2019-03-09T05:58:31.061Z,7.60
2019-03-09T05:59:31.007Z,7.47
2019-03-09T06:00:30.998Z,7.42
2019-03-09T06:01:30.988Z,7.36
2019-03-09T06:02:30.971Z,7.40
2019-03-09T06:03:31.471Z,7.33
2019-03-09T06:04:30.956Z,7.29
2019-03-09T06:05:30.939Z,7.20
2019-03-09T06:06:30.926Z,7.20
2019-03-09T06:07:30.917Z,7.18
2019-03-09T06:08:30.908Z,7.17
2019-03-09T06:09:30.918Z,7.00
2019-03-09T06:10:30.930Z,7.17
2019-03-09T06:11:30.879Z,7.13
2019-03-09T06:12:30.867Z,7.10
2019-03-09T06:13:30.877Z,7.03
2019-03-09T06:14:30.841Z,7.14
2019-03-09T06:15:30.828Z,7.05
2019-03-09T06:16:30.821Z,7.02
2019-03-09T06:17:30.813Z,7.00
2019-03-09T06:18:30.856Z,7.02
2019-03-09T06:19:30.804Z,6.92
2019-03-09T06:20:30.774Z,6.95
2019-03-09T06:21:30.775Z,7.00
2019-03-09T06:22:30.763Z,6.96
2019-03-09T06:23:30.791Z,7.06
2019-03-09T06:24:30.736Z,6.97
2019-03-09T06:25:30.719Z,6.89
2019-03-09T06:26:30.713Z,6.85
2019-03-09T06:27:30.706Z,6.88
2019-03-09T06:28:30.690Z,6.85
2019-03-09T06:29:30.706Z,6.81
2019-03-09T06:30:30.670Z,6.85
2019-03-09T06:31:30.666Z,6.79
2019-03-09T06:32:30.671Z,6.77
2019-03-09T06:33:30.634Z,6.78
2019-03-09T06:34:30.630Z,6.79
2019-03-09T06:35:30.638Z,6.79
2019-03-09T06:36:30.607Z,6.72
2019-03-09T06:37:30.593Z,6.66
2019-03-09T06:38:30.659Z,6.72
2019-03-09T06:39:30.571Z,6.69
2019-03-09T06:40:30.563Z,6.77
2019-03-09T06:41:30.557Z,6.63
2019-03-09T06:42:30.548Z,6.63
2019-03-09T06:43:30.555Z,6.64
2019-03-09T06:44:30.542Z,6.60
2019-03-09T06:45:30.510Z,6.66
2019-03-09T06:46:30.522Z,6.63
2019-03-09T06:47:30.501Z,6.66
2019-03-09T06:48:30.473Z,6.67
2019-03-09T06:49:30.470Z,6.60
2019-03-09T06:50:30.494Z,6.59
2019-03-09T06:51:30.444Z,6.66
2019-03-09T06:52:30.503Z,6.63
2019-03-09T06:53:30.431Z,6.67
2019-03-09T06:54:30.417Z,6.67
2019-03-09T06:55:30.409Z,6.70
2019-03-09T06:56:30.399Z,6.70
2019-03-09T06:57:30.385Z,6.75
2019-03-09T06:58:30.389Z,6.63
2019-03-09T06:59:30.356Z,6.64
2019-03-09T07:00:30.346Z,6.75
2019-03-09T07:01:30.344Z,6.74
2019-03-09T07:02:30.333Z,6.60
2019-03-09T07:03:30.343Z,6.70
2019-03-09T07:04:30.315Z,6.75
2019-03-09T07:05:30.298Z,6.75
2019-03-09T07:06:30.306Z,6.77
2019-03-09T07:07:30.289Z,6.78
2019-03-09T07:08:30.292Z,6.74
2019-03-09T07:09:30.252Z,6.81
2019-03-09T07:10:30.240Z,6.85
2019-03-09T07:11:30.232Z,6.85
2019-03-09T07:12:30.222Z,6.88
2019-03-09T07:13:30.235Z,6.77
2019-03-09T07:14:30.206Z,6.82
2019-03-09T07:15:30.195Z,6.79
2019-03-09T07:16:30.185Z,6.82
2019-03-09T07:17:30.165Z,6.82
2019-03-09T07:18:30.175Z,6.88
2019-03-09T07:19:30.145Z,6.82
2019-03-09T07:20:30.141Z,6.96
2019-03-09T07:21:30.131Z,7.02
2019-03-09T07:22:30.120Z,7.00
2019-03-09T07:23:30.129Z,6.97
2019-03-09T07:24:30.091Z,7.05
2019-03-09T07:25:30.088Z,7.05
2019-03-09T07:26:30.125Z,6.99
2019-03-09T07:27:30.067Z,7.03
2019-03-09T07:28:30.054Z,7.07
2019-03-09T07:29:30.041Z,7.10
2019-03-09T07:30:30.029Z,7.06
2019-03-09T07:31:30.027Z,7.03
2019-03-09T07:32:30.028Z,7.03
2019-03-09T07:33:30.047Z,7.03
2019-03-09T07:34:29.992Z,7.13
2019-03-09T07:35:29.983Z,7.11
2019-03-09T07:36:30.034Z,7.14
2019-03-09T07:37:29.954Z,7.24
2019-03-09T07:38:29.944Z,7.23
2019-03-09T07:39:38.970Z,7.18
2019-03-09T07:40:29.926Z,7.29
2019-03-09T07:41:29.919Z,7.20
2019-03-09T07:42:29.925Z,7.24
2019-03-09T07:43:29.903Z,7.31
2019-03-09T07:44:29.888Z,7.33
2019-03-09T07:45:29.875Z,7.33
2019-03-09T07:46:29.888Z,7.43
2019-03-09T07:47:29.850Z,7.36
2019-03-09T07:48:29.845Z,7.43
2019-03-09T07:49:29.847Z,7.53
2019-03-09T07:50:29.817Z,7.48
2019-03-09T07:51:29.814Z,7.53
2019-03-09T07:52:29.807Z,7.53
2019-03-09T07:53:29.784Z,7.47
2019-03-09T07:54:29.811Z,7.61
2019-03-09T07:55:29.769Z,7.57
2019-03-09T07:56:29.765Z,7.60
2019-03-09T07:57:29.750Z,7.56
2019-03-09T07:58:29.737Z,7.70
2019-03-09T07:59:29.718Z,7.60
2019-03-09T08:00:29.727Z,7.54
2019-03-09T08:01:29.696Z,7.70
2019-03-09T08:02:29.687Z,7.70
2019-03-09T08:03:29.684Z,7.87
2019-03-09T08:04:29.676Z,7.80
2019-03-09T08:05:29.681Z,7.82
2019-03-09T08:06:29.657Z,7.82
2019-03-09T08:07:29.635Z,7.87
2019-03-09T08:08:29.622Z,7.90
2019-03-09T08:09:29.619Z,7.97
2019-03-09T08:10:29.639Z,7.95
2019-03-09T08:11:29.589Z,8.06
2019-03-09T08:12:29.580Z,8.01
2019-03-09T08:13:29.571Z,8.05
2019-03-09T08:14:29.557Z,8.05
2019-03-09T08:15:29.563Z,8.15
2019-03-09T08:16:35.724Z,8.10
2019-03-09T08:17:30.532Z,8.15
2019-03-09T08:18:29.519Z,8.08
2019-03-09T08:19:29.510Z,8.10
2019-03-09T08:20:29.517Z,8.12
2019-03-09T08:21:29.520Z,8.10
2019-03-09T08:22:29.472Z,8.26
2019-03-09T08:23:29.469Z,8.27
2019-03-09T08:24:29.454Z,8.48
2019-03-09T08:25:29.436Z,8.51
2019-03-09T08:26:29.429Z,8.71
2019-03-09T08:27:29.456Z,8.73
2019-03-09T08:28:29.412Z,8.71
2019-03-09T08:29:29.406Z,8.73
2019-03-09T08:30:29.408Z,8.76
2019-03-09T08:31:29.372Z,8.71
2019-03-09T08:32:29.376Z,8.79
2019-03-09T08:33:30.921Z,8.74
2019-03-09T08:34:29.354Z,8.69
2019-03-09T08:35:29.328Z,8.66
2019-03-09T08:36:29.328Z,8.60
2019-03-09T08:37:29.315Z,8.60
2019-03-09T08:38:29.334Z,8.49
2019-03-09T08:39:29.323Z,8.38
2019-03-09T08:40:29.288Z,8.31
2019-03-09T08:41:29.281Z,8.30
2019-03-09T08:42:29.254Z,8.27
2019-03-09T08:43:29.270Z,8.28
2019-03-09T08:44:29.240Z,8.28
2019-03-09T08:45:29.250Z,8.16
2019-03-09T08:46:29.217Z,8.09
2019-03-09T08:47:29.216Z,8.13
2019-03-09T08:48:29.220Z,8.16
2019-03-09T08:49:29.213Z,8.06
2019-03-09T08:50:29.167Z,8.13
2019-03-09T08:51:29.161Z,8.15
2019-03-09T08:52:29.178Z,8.16
2019-03-09T08:53:31.123Z,8.12
2019-03-09T08:54:29.202Z,8.08
2019-03-09T08:55:29.164Z,8.06
2019-03-09T08:56:29.102Z,8.12
2019-03-09T08:57:29.138Z,8.12
2019-03-09T08:58:29.083Z,8.28
2019-03-09T08:59:29.114Z,8.36
2019-03-09T09:00:30.278Z,10.93
2019-03-09T09:01:29.057Z,12.94
2019-03-09T09:02:29.036Z,14.82
2019-03-09T09:03:29.038Z,16.36
2019-03-09T09:04:29.041Z,17.56
2019-03-09T09:05:29.033Z,18.50
2019-03-09T09:06:29.001Z,19.16
2019-03-09T09:07:29.016Z,19.77
2019-03-09T09:08:29.029Z,20.21
2019-03-09T09:09:28.961Z,20.70
2019-03-09T09:10:28.969Z,21.02
2019-03-09T09:11:28.945Z,21.14
2019-03-09T09:12:28.938Z,21.35
2019-03-09T09:13:28.918Z,22.22
2019-03-09T09:14:28.906Z,22.45
2019-03-09T09:15:28.936Z,22.43
2019-03-09T09:16:28.893Z,23.23
2019-03-09T09:17:28.881Z,23.88
2019-03-09T09:18:28.873Z,24.65
2019-03-09T09:19:28.850Z,25.62
2019-03-09T09:20:28.843Z,25.98
2019-03-09T09:21:28.864Z,25.91
2019-03-09T09:22:28.818Z,26.58
2019-03-09T09:23:28.818Z,26.80
2019-03-09T09:24:28.809Z,26.00
2019-03-09T09:25:28.808Z,25.98
2019-03-09T09:26:28.787Z,26.38
2019-03-09T09:27:28.796Z,27.03
2019-03-09T09:28:28.755Z,24.53
2019-03-09T09:29:28.749Z,23.31
2019-03-09T09:30:28.745Z,23.47
2019-03-09T09:31:28.728Z,22.18
2019-03-09T09:32:28.713Z,21.07
2019-03-09T09:33:28.736Z,20.03
2019-03-09T09:34:28.691Z,19.24
2019-03-09T09:35:28.686Z,20.29
2019-03-09T09:36:28.678Z,20.16
2019-03-09T09:37:28.705Z,18.96
2019-03-09T09:38:28.655Z,17.59
2019-03-09T09:39:28.640Z,16.66
2019-03-09T09:40:28.630Z,15.77
2019-03-09T09:41:28.669Z,15.39
2019-03-09T09:42:28.612Z,17.14
2019-03-09T09:43:28.623Z,18.60
2019-03-09T09:44:28.590Z,19.70
2019-03-09T09:45:28.574Z,20.78
2019-03-09T09:46:28.587Z,20.85
2019-03-09T09:47:28.588Z,21.95
2019-03-09T09:48:28.550Z,22.90
2019-03-09T09:49:28.540Z,23.21
2019-03-09T09:50:28.524Z,22.98
2019-03-09T09:51:28.509Z,20.75
2019-03-09T09:52:28.503Z,21.52
2019-03-09T09:53:28.512Z,22.50
2019-03-09T09:54:28.486Z,23.24
2019-03-09T09:55:28.484Z,23.46
2019-03-09T09:56:28.505Z,23.50
2019-03-09T09:57:28.453Z,24.38
2019-03-09T09:58:28.442Z,24.99
2019-03-09T09:59:28.426Z,25.78
2019-03-09T10:00:28.422Z,26.40
2019-03-09T10:01:28.421Z,26.93
2019-03-09T10:02:28.436Z,26.52
2019-03-09T10:03:28.385Z,25.18
2019-03-09T10:04:28.372Z,24.80
2019-03-09T10:05:28.363Z,22.08
2019-03-09T10:06:28.356Z,19.88
2019-03-09T10:07:28.355Z,18.44
2019-03-09T10:08:28.384Z,17.72
2019-03-09T10:09:28.345Z,17.06
2019-03-09T10:10:29.854Z,16.57
2019-03-09T10:11:28.308Z,16.10
2019-03-09T10:12:28.290Z,16.08
2019-03-09T10:13:28.298Z,15.83
2019-03-09T10:14:28.268Z,16.32
2019-03-09T10:15:28.296Z,16.87
2019-03-09T10:16:28.261Z,16.71
2019-03-09T10:17:28.240Z,16.54
2019-03-09T10:18:28.247Z,16.83
2019-03-09T10:19:28.221Z,16.39
2019-03-09T10:20:28.241Z,16.42
2019-03-09T10:21:28.197Z,16.41
2019-03-09T10:22:28.211Z,16.50
2019-03-09T10:23:28.175Z,16.29
2019-03-09T10:24:28.170Z,15.88
2019-03-09T10:25:28.169Z,15.42
2019-03-09T10:26:28.182Z,15.22
2019-03-09T10:27:28.130Z,15.03
2019-03-09T10:28:28.124Z,14.68
2019-03-09T10:29:28.118Z,14.35
2019-03-09T10:30:28.131Z,14.17
2019-03-09T10:31:28.083Z,13.90
2019-03-09T10:32:28.098Z,13.75
2019-03-09T10:33:28.065Z,13.70
2019-03-09T10:34:28.055Z,13.31
2019-03-09T10:35:28.040Z,13.09
2019-03-09T10:36:28.037Z,12.90
2019-03-09T10:37:28.079Z,12.85
2019-03-09T10:38:28.216Z,12.79
2019-03-09T10:39:28.002Z,12.76
2019-03-09T10:40:27.992Z,12.76
2019-03-09T10:41:27.980Z,12.68
2019-03-09T10:42:27.972Z,12.70
2019-03-09T10:43:27.973Z,12.70
2019-03-09T10:44:27.958Z,12.72
2019-03-09T10:45:27.942Z,12.95
2019-03-09T10:46:27.929Z,12.83
2019-03-09T10:47:27.913Z,12.83
2019-03-09T10:48:27.924Z,12.79
2019-03-09T10:49:27.885Z,12.82
2019-03-09T10:50:27.877Z,12.76
2019-03-09T10:51:27.880Z,12.80
2019-03-09T10:52:27.884Z,12.78
2019-03-09T10:53:27.883Z,12.68
2019-03-09T10:54:35.739Z,12.70
2019-03-09T10:55:28.820Z,12.80
2019-03-09T10:56:27.813Z,12.72
2019-03-09T10:57:27.803Z,12.67
2019-03-09T10:58:27.825Z,12.79
2019-03-09T10:59:27.783Z,12.79
2019-03-09T11:00:27.777Z,12.68
2019-03-09T11:01:27.765Z,12.70
2019-03-09T11:02:27.753Z,12.58
2019-03-09T11:03:27.741Z,12.49
2019-03-09T11:04:28.098Z,12.36
2019-03-09T11:05:27.721Z,12.36
2019-03-09T11:06:27.713Z,12.28
2019-03-09T11:07:27.692Z,12.46
2019-03-09T11:08:27.688Z,12.55
2019-03-09T11:09:27.674Z,12.45
2019-03-09T11:10:27.682Z,12.43
2019-03-09T11:11:27.652Z,12.57
2019-03-09T11:12:27.653Z,12.65
2019-03-09T11:13:27.634Z,12.73
2019-03-09T11:14:27.620Z,12.61
2019-03-09T11:15:27.624Z,12.46
2019-03-09T11:16:27.593Z,12.35
2019-03-09T11:17:27.580Z,12.20
2019-03-09T11:18:27.575Z,12.17
2019-03-09T11:19:27.568Z,12.00
2019-03-09T11:20:27.582Z,11.80
2019-03-09T11:21:27.551Z,11.86
2019-03-09T11:22:27.530Z,11.81
2019-03-09T11:23:27.542Z,11.83
2019-03-09T11:24:27.513Z,11.83
2019-03-09T11:25:27.501Z,11.95
2019-03-09T11:26:27.531Z,12.06
2019-03-09T11:27:27.471Z,12.06
2019-03-09T11:28:27.467Z,12.13
2019-03-09T11:29:28.336Z,12.27
2019-03-09T11:30:27.444Z,12.36
2019-03-09T11:31:27.463Z,12.28
2019-03-09T11:32:27.426Z,12.20
2019-03-09T11:33:27.412Z,12.25
2019-03-09T11:34:27.401Z,12.35
2019-03-09T11:35:27.387Z,12.36
2019-03-09T11:36:27.395Z,12.28
2019-03-09T11:37:27.379Z,12.35
2019-03-09T11:38:27.363Z,12.31
2019-03-09T11:39:27.372Z,12.29
2019-03-09T11:40:27.331Z,12.35
2019-03-09T11:41:27.350Z,12.53
2019-03-09T11:42:27.323Z,12.73
2019-03-09T11:43:27.307Z,12.67
2019-03-09T11:44:27.299Z,12.49
2019-03-09T11:45:27.283Z,12.54
2019-03-09T11:46:27.273Z,12.55
2019-03-09T11:47:27.283Z,12.83
2019-03-09T11:48:27.245Z,12.85
2019-03-09T11:49:27.234Z,12.86
2019-03-09T11:50:27.222Z,13.04
2019-03-09T11:51:27.248Z,13.05
2019-03-09T11:52:29.130Z,13.05
2019-03-09T11:53:27.190Z,13.13
2019-03-09T11:54:27.188Z,13.04
2019-03-09T11:55:27.189Z,13.03
2019-03-09T11:56:27.173Z,13.09
2019-03-09T11:57:27.171Z,12.91
2019-03-09T11:58:38.145Z,12.85
2019-03-09T11:59:36.127Z,12.60
2019-03-09T12:00:27.124Z,12.70
2019-03-09T12:01:27.114Z,12.79
2019-03-09T12:02:27.129Z,12.72
2019-03-09T12:03:27.085Z,12.70
2019-03-09T12:04:27.070Z,12.78
2019-03-09T12:05:27.126Z,12.80
2019-03-09T12:06:27.060Z,12.82
2019-03-09T12:07:27.042Z,12.85
2019-03-09T12:08:27.046Z,13.00
2019-03-09T12:09:27.043Z,13.33
2019-03-09T12:10:27.005Z,13.42
2019-03-09T12:11:27.017Z,13.41
2019-03-09T12:12:26.991Z,13.47
2019-03-09T12:13:27.004Z,13.50
2019-03-09T12:14:26.966Z,13.46
2019-03-09T12:15:26.952Z,13.53
2019-03-09T12:16:26.953Z,13.78
2019-03-09T12:17:26.932Z,13.81
2019-03-09T12:18:27.004Z,13.99
2019-03-09T12:19:26.913Z,14.03
2019-03-09T12:20:26.905Z,14.04
2019-03-09T12:21:26.886Z,14.14
2019-03-09T12:22:26.873Z,14.00
2019-03-09T12:23:26.879Z,13.81
2019-03-09T12:24:26.881Z,13.68
2019-03-09T12:25:26.847Z,13.70
2019-03-09T12:26:26.836Z,13.60
2019-03-09T12:27:26.818Z,13.53
2019-03-09T12:28:26.838Z,13.60
2019-03-09T12:29:26.804Z,13.52
2019-03-09T12:30:26.797Z,13.53
2019-03-09T12:31:35.664Z,13.35
2019-03-09T12:32:26.774Z,13.35
2019-03-09T12:33:34.869Z,13.25
2019-03-09T12:34:35.724Z,13.25
2019-03-09T12:35:26.733Z,13.27
2019-03-09T12:36:26.720Z,13.09
2019-03-09T12:37:26.717Z,13.05
2019-03-09T12:38:26.717Z,13.04
2019-03-09T12:39:26.716Z,13.05
2019-03-09T12:40:26.684Z,13.11
2019-03-09T12:41:26.689Z,13.23
2019-03-09T12:42:26.658Z,13.25
2019-03-09T12:43:26.644Z,13.22
2019-03-09T12:44:26.656Z,13.28
2019-03-09T12:45:26.633Z,13.27
2019-03-09T12:46:26.637Z,13.35
2019-03-09T12:47:26.604Z,13.30
2019-03-09T12:48:26.612Z,13.33
2019-03-09T12:49:26.586Z,13.35
2019-03-09T12:50:26.574Z,13.37
2019-03-09T12:51:26.567Z,13.42
2019-03-09T12:52:26.557Z,13.41
2019-03-09T12:53:26.570Z,13.35
2019-03-09T12:54:26.528Z,13.25
2019-03-09T12:55:26.518Z,13.16
2019-03-09T12:56:26.505Z,13.03
2019-03-09T12:57:26.503Z,12.98
2019-03-09T12:58:26.493Z,12.90
2019-03-09T12:59:26.528Z,12.82
2019-03-09T13:00:26.499Z,12.85
2019-03-09T13:01:26.451Z,12.85
2019-03-09T13:02:26.438Z,12.97
2019-03-09T13:03:26.436Z,12.94
2019-03-09T13:04:26.423Z,13.01
2019-03-09T13:05:26.455Z,12.95
2019-03-09T13:06:26.396Z,13.01
2019-03-09T13:07:26.384Z,13.08
2019-03-09T13:08:26.374Z,12.94
2019-03-09T13:09:26.382Z,12.94
2019-03-09T13:10:26.392Z,12.90